createdAt,value
2018-12-26T00:00:04.247Z,5.29
2018-12-26T00:00:30.492Z,5.29
2018-12-26T00:00:56.598Z,5.26
2018-12-26T00:01:22.947Z,5.23
2018-12-26T00:01:49.157Z,5.17
2018-12-26T00:02:15.260Z,5.14
2018-12-26T00:02:41.369Z,5.17
2018-12-26T00:03:07.502Z,5.17
2018-12-26T00:03:33.599Z,5.18
2018-12-26T00:03:59.705Z,5.21
2018-12-26T00:04:25.815Z,5.18
2018-12-26T00:04:51.919Z,5.14
2018-12-26T00:05:18.030Z,5.17
2018-12-26T00:05:44.494Z,5.2
2018-12-26T00:06:10.626Z,5.11
2018-12-26T00:06:36.728Z,5.11
2018-12-26T00:07:02.836Z,5.2
2018-12-26T00:07:28.940Z,4.99
2018-12-26T00:07:55.117Z,5.04
2018-12-26T00:08:21.214Z,5.11
2018-12-26T00:08:47.351Z,5.1
2018-12-26T00:09:13.455Z,4.99
2018-12-26T00:09:39.563Z,5.02
2018-12-26T00:10:05.667Z,5.05
2018-12-26T00:10:31.770Z,5.04
2018-12-26T00:10:57.878Z,5
2018-12-26T00:11:23.980Z,4.99
2018-12-26T00:11:50.111Z,5.02
2018-12-26T00:12:16.222Z,5.07
2018-12-26T00:12:42.330Z,4.96
2018-12-26T00:13:08.459Z,5.02
2018-12-26T00:13:34.556Z,5.02
2018-12-26T00:14:00.702Z,5.1
2018-12-26T00:14:26.817Z,5.1
2018-12-26T00:14:52.915Z,5.1
2018-12-26T00:15:19.013Z,5.12
2018-12-26T00:15:45.124Z,5.07
2018-12-26T00:16:11.233Z,5.07
2018-12-26T00:16:37.392Z,5.07
2018-12-26T00:17:03.501Z,5.14
2018-12-26T00:17:29.610Z,5.12
2018-12-26T00:17:55.710Z,5.11
2018-12-26T00:18:21.852Z,5.15
2018-12-26T00:18:48.193Z,5.21
2018-12-26T00:19:14.268Z,5.05
2018-12-26T00:19:40.542Z,5.15
2018-12-26T00:20:07.060Z,5.05
2018-12-26T00:20:33.301Z,5.08
2018-12-26T00:20:59.378Z,5.14
2018-12-26T00:21:25.525Z,5.18
2018-12-26T00:21:51.633Z,5.15
2018-12-26T00:22:17.736Z,5.15
2018-12-26T00:22:43.845Z,5.1
2018-12-26T00:23:09.955Z,5.25
2018-12-26T00:23:36.085Z,5.12
2018-12-26T00:24:02.337Z,5.2
2018-12-26T00:24:28.401Z,5.14
2018-12-26T00:24:54.583Z,5.2
2018-12-26T00:25:20.999Z,5.1
2018-12-26T00:25:46.982Z,5.17
2018-12-26T00:26:14.096Z,5.25
2018-12-26T00:26:40.202Z,5.14
2018-12-26T00:27:06.305Z,5.15
2018-12-26T00:27:32.406Z,5.08
2018-12-26T00:27:58.525Z,5.08
2018-12-26T00:28:24.656Z,5.05
2018-12-26T00:28:50.758Z,5.07
2018-12-26T00:29:16.860Z,5.1
2018-12-26T00:29:42.967Z,5.15
2018-12-26T00:30:09.819Z,5.02
2018-12-26T00:30:35.929Z,5.05
2018-12-26T00:31:02.037Z,4.99
2018-12-26T00:31:28.171Z,5.02
2018-12-26T00:31:54.299Z,5.07
2018-12-26T00:32:20.434Z,5
2018-12-26T00:32:46.570Z,5.08
2018-12-26T00:33:12.713Z,5.15
2018-12-26T00:33:38.815Z,5.15
2018-12-26T00:34:04.921Z,5.04
2018-12-26T00:34:31.059Z,5.02
2018-12-26T00:34:57.160Z,5.07
2018-12-26T00:35:23.270Z,5.02
2018-12-26T00:35:49.389Z,5.07
2018-12-26T00:36:15.493Z,5.02
2018-12-26T00:36:41.600Z,5.04
2018-12-26T00:37:07.712Z,5
2018-12-26T00:37:33.816Z,5.07
2018-12-26T00:37:59.944Z,5.02
2018-12-26T00:38:26.050Z,5.02
2018-12-26T00:38:52.152Z,5.05
2018-12-26T00:39:18.263Z,5.07
2018-12-26T00:39:44.360Z,5.08
2018-12-26T00:40:10.469Z,5.15
2018-12-26T00:40:36.577Z,5.07
2018-12-26T00:41:02.680Z,5.04
2018-12-26T00:41:28.779Z,5.04
2018-12-26T00:41:54.888Z,5.17
2018-12-26T00:42:20.996Z,5.18
2018-12-26T00:42:47.103Z,5.21
2018-12-26T00:43:13.212Z,5.15
2018-12-26T00:43:39.320Z,5.12
2018-12-26T00:44:05.422Z,5.12
2018-12-26T00:44:31.525Z,5.15
2018-12-26T00:44:57.637Z,5.18
2018-12-26T00:45:23.737Z,5.18
2018-12-26T00:45:49.844Z,5.11
2018-12-26T00:46:15.996Z,5.17
2018-12-26T00:46:42.102Z,5.14
2018-12-26T00:47:08.227Z,5.28
2018-12-26T00:47:34.338Z,5.25
2018-12-26T00:48:00.437Z,5.32
2018-12-26T00:48:26.539Z,5.25
2018-12-26T00:48:52.639Z,5.17
2018-12-26T00:49:18.747Z,5.25
2018-12-26T00:49:44.850Z,5.26
2018-12-26T00:50:10.944Z,5.2
2018-12-26T00:50:37.049Z,5.26
2018-12-26T00:51:03.178Z,5.25
2018-12-26T00:51:29.285Z,5.32
2018-12-26T00:51:55.395Z,5.21
2018-12-26T00:52:21.498Z,5.32
2018-12-26T00:52:47.604Z,5.29
2018-12-26T00:53:13.708Z,5.28
2018-12-26T00:53:39.810Z,5.3
2018-12-26T00:54:05.915Z,5.32
2018-12-26T00:54:32.013Z,5.3
2018-12-26T00:54:58.111Z,5.32
2018-12-26T00:55:24.222Z,5.26
2018-12-26T00:55:50.320Z,5.3
2018-12-26T00:56:17.420Z,5.29
2018-12-26T00:56:43.526Z,5.35
2018-12-26T00:57:09.633Z,5.29
2018-12-26T00:57:35.759Z,5.32
2018-12-26T00:58:01.857Z,5.26
2018-12-26T00:58:27.962Z,5.18
2018-12-26T00:58:54.062Z,5.14
2018-12-26T00:59:20.169Z,5.23
2018-12-26T00:59:46.272Z,5.17
2018-12-26T01:00:12.381Z,5.2
2018-12-26T01:00:38.476Z,5.23
2018-12-26T01:01:04.585Z,5.26
2018-12-26T01:01:30.698Z,5.25
2018-12-26T01:01:56.845Z,5.15
2018-12-26T01:02:22.945Z,5.23
2018-12-26T01:02:49.054Z,5.11
2018-12-26T01:03:15.162Z,5.1
2018-12-26T01:03:41.280Z,5.08
2018-12-26T01:04:07.453Z,5.14
2018-12-26T01:04:33.559Z,5.14
2018-12-26T01:04:59.666Z,5.17
2018-12-26T01:05:25.774Z,5.2
2018-12-26T01:05:51.882Z,5.14
2018-12-26T01:06:17.988Z,5.18
2018-12-26T01:06:44.085Z,5.21
2018-12-26T01:07:10.193Z,5.2
2018-12-26T01:07:36.293Z,5.26
2018-12-26T01:08:02.396Z,5.33
2018-12-26T01:08:28.503Z,5.28
2018-12-26T01:08:54.608Z,5.28
2018-12-26T01:09:20.717Z,5.32
2018-12-26T01:09:46.822Z,5.29
2018-12-26T01:10:12.980Z,5.25
2018-12-26T01:10:39.087Z,5.15
2018-12-26T01:11:05.212Z,5.17
2018-12-26T01:11:31.324Z,5.1
2018-12-26T01:11:57.463Z,5.1
2018-12-26T01:12:23.558Z,5.12
2018-12-26T01:12:49.692Z,5.11
2018-12-26T01:13:15.794Z,5.17
2018-12-26T01:13:41.901Z,5.14
2018-12-26T01:14:08.000Z,5.14
2018-12-26T01:14:34.102Z,5.15
2018-12-26T01:15:00.211Z,5.05
2018-12-26T01:15:26.313Z,5.04
2018-12-26T01:15:52.517Z,5.17
2018-12-26T01:16:18.569Z,5.04
2018-12-26T01:16:44.674Z,5.18
2018-12-26T01:17:10.773Z,5.02
2018-12-26T01:17:36.906Z,5.12
2018-12-26T01:18:03.460Z,5.15
2018-12-26T01:18:29.562Z,5.04
2018-12-26T01:18:55.718Z,5.15
2018-12-26T01:19:21.862Z,5.1
2018-12-26T01:19:47.963Z,5.05
2018-12-26T01:20:14.068Z,4.96
2018-12-26T01:20:40.201Z,5.07
2018-12-26T01:21:06.303Z,5.08
2018-12-26T01:21:32.410Z,5.05
2018-12-26T01:21:58.512Z,4.96
2018-12-26T01:22:24.644Z,5.04
2018-12-26T01:22:50.778Z,5.12
2018-12-26T01:23:16.912Z,5.02
2018-12-26T01:23:43.016Z,5.02
2018-12-26T01:24:09.126Z,5.05
2018-12-26T01:24:35.231Z,5.07
2018-12-26T01:25:01.335Z,5.02
2018-12-26T01:25:27.479Z,4.94
2018-12-26T01:25:53.608Z,5.02
2018-12-26T01:26:20.677Z,5.08
2018-12-26T01:26:46.785Z,5.02
2018-12-26T01:27:12.882Z,5.05
2018-12-26T01:27:38.985Z,4.99
2018-12-26T01:28:05.094Z,5
2018-12-26T01:28:31.196Z,5.1
2018-12-26T01:28:57.328Z,5.11
2018-12-26T01:29:23.431Z,5.1
2018-12-26T01:29:49.535Z,5.12
2018-12-26T01:30:15.647Z,5.04
2018-12-26T01:30:41.751Z,5.05
2018-12-26T01:31:07.853Z,5.04
2018-12-26T01:31:33.987Z,5.05
2018-12-26T01:32:00.114Z,5.08
2018-12-26T01:32:26.224Z,5.11
2018-12-26T01:32:52.328Z,5.11
2018-12-26T01:33:18.464Z,5.08
2018-12-26T01:33:44.572Z,5.11
2018-12-26T01:34:10.673Z,5.04
2018-12-26T01:34:36.776Z,5.12
2018-12-26T01:35:02.890Z,5.1
2018-12-26T01:35:29.023Z,5.15
2018-12-26T01:35:56.115Z,5.11
2018-12-26T01:36:22.220Z,5.12
2018-12-26T01:36:48.366Z,5.07
2018-12-26T01:37:14.465Z,4.96
2018-12-26T01:37:40.575Z,5.04
2018-12-26T01:38:06.724Z,5.14
2018-12-26T01:38:32.834Z,5.1
2018-12-26T01:38:58.936Z,5.04
2018-12-26T01:39:25.061Z,5.04
2018-12-26T01:39:51.170Z,5.08
2018-12-26T01:40:17.347Z,5.14
2018-12-26T01:40:43.428Z,5.15
2018-12-26T01:41:09.532Z,5.23
2018-12-26T01:41:35.644Z,5.04
2018-12-26T01:42:01.749Z,5.11
2018-12-26T01:42:27.862Z,5.14
2018-12-26T01:42:53.988Z,5.07
2018-12-26T01:43:20.097Z,5.14
2018-12-26T01:43:46.198Z,5.1
2018-12-26T01:44:12.324Z,5.17
2018-12-26T01:44:38.437Z,5.18
2018-12-26T01:45:04.680Z,5.14
2018-12-26T01:45:30.784Z,5.08
2018-12-26T01:45:56.889Z,5.08
2018-12-26T01:46:23.027Z,5.12
2018-12-26T01:46:49.126Z,5.15
2018-12-26T01:47:15.231Z,5.15
2018-12-26T01:47:41.333Z,5.07
2018-12-26T01:48:07.441Z,5.14
2018-12-26T01:48:33.543Z,5.07
2018-12-26T01:48:59.648Z,5.14
2018-12-26T01:49:25.755Z,5.08
2018-12-26T01:49:51.953Z,5.11
2018-12-26T01:50:18.016Z,5.1
2018-12-26T01:50:44.125Z,5.1
2018-12-26T01:51:10.230Z,5.1
2018-12-26T01:51:36.334Z,5.17
2018-12-26T01:52:02.444Z,5.11
2018-12-26T01:52:28.575Z,5.02
2018-12-26T01:52:54.681Z,5.18
2018-12-26T01:53:20.784Z,5.15
2018-12-26T01:53:46.893Z,5.12
2018-12-26T01:54:12.997Z,5.11
2018-12-26T01:54:39.103Z,5.11
2018-12-26T01:55:05.199Z,5.14
2018-12-26T01:55:31.387Z,5.11
2018-12-26T01:55:57.489Z,5.08
2018-12-26T01:56:27.824Z,5.08
2018-12-26T01:56:50.687Z,5.1
2018-12-26T01:57:16.793Z,5.1
2018-12-26T01:57:42.898Z,5.05
2018-12-26T01:58:09.007Z,5.12
2018-12-26T01:58:35.128Z,5.04
2018-12-26T01:59:01.259Z,5.02
2018-12-26T01:59:27.922Z,5.1
2018-12-26T01:59:54.025Z,5.12
2018-12-26T02:00:20.133Z,5.1
2018-12-26T02:00:46.235Z,5.08
2018-12-26T02:01:12.343Z,5.04
2018-12-26T02:01:38.483Z,5.07
2018-12-26T02:02:04.629Z,4.92
2018-12-26T02:02:30.733Z,4.92
2018-12-26T02:02:56.835Z,4.89
2018-12-26T02:03:22.946Z,4.9
2018-12-26T02:03:49.065Z,4.86
2018-12-26T02:04:15.177Z,4.93
2018-12-26T02:04:41.310Z,4.97
2018-12-26T02:05:07.409Z,5
2018-12-26T02:05:33.522Z,4.92
2018-12-26T02:05:59.633Z,4.93
2018-12-26T02:06:25.756Z,4.9
2018-12-26T02:06:51.855Z,4.89
2018-12-26T02:07:17.994Z,5.02
2018-12-26T02:07:44.091Z,4.92
2018-12-26T02:08:10.197Z,4.93
2018-12-26T02:08:36.307Z,4.89
2018-12-26T02:09:02.437Z,4.94
2018-12-26T02:09:28.539Z,4.94
2018-12-26T02:09:54.646Z,4.89
2018-12-26T02:10:20.746Z,4.92
2018-12-26T02:10:46.886Z,4.87
2018-12-26T02:11:13.027Z,4.89
2018-12-26T02:11:39.131Z,4.93
2018-12-26T02:12:05.234Z,4.9
2018-12-26T02:12:31.393Z,4.87
2018-12-26T02:12:57.495Z,4.9
2018-12-26T02:13:23.599Z,4.89
2018-12-26T02:13:49.698Z,4.92
2018-12-26T02:14:15.800Z,4.93
2018-12-26T02:14:41.905Z,4.94
2018-12-26T02:15:08.007Z,4.93
2018-12-26T02:15:34.147Z,4.94
2018-12-26T02:16:00.278Z,4.94
2018-12-26T02:16:26.383Z,4.87
2018-12-26T02:16:52.498Z,4.86
2018-12-26T02:17:18.631Z,4.86
2018-12-26T02:17:44.742Z,4.78
2018-12-26T02:18:10.852Z,4.77
2018-12-26T02:18:36.953Z,4.89
2018-12-26T02:19:03.061Z,4.87
2018-12-26T02:19:29.193Z,4.77
2018-12-26T02:19:55.298Z,4.75
2018-12-26T02:20:21.401Z,4.82
2018-12-26T02:20:47.497Z,4.78
2018-12-26T02:21:13.647Z,4.82
2018-12-26T02:21:39.745Z,4.82
2018-12-26T02:22:05.853Z,4.77
2018-12-26T02:22:31.984Z,4.75
2018-12-26T02:22:58.084Z,4.75
2018-12-26T02:23:24.216Z,4.74
2018-12-26T02:23:50.326Z,4.74
2018-12-26T02:24:16.436Z,4.75
2018-12-26T02:24:42.560Z,4.77
2018-12-26T02:25:08.661Z,4.78
2018-12-26T02:25:34.762Z,4.78
2018-12-26T02:26:00.868Z,4.75
2018-12-26T02:26:26.968Z,4.75
2018-12-26T02:26:54.065Z,4.8
2018-12-26T02:27:20.202Z,4.71
2018-12-26T02:27:46.328Z,4.74
2018-12-26T02:28:12.437Z,4.75
2018-12-26T02:28:38.570Z,4.71
2018-12-26T02:29:04.675Z,4.74
2018-12-26T02:29:30.777Z,4.63
2018-12-26T02:29:56.882Z,4.74
2018-12-26T02:30:23.063Z,4.71
2018-12-26T02:30:49.160Z,4.73
2018-12-26T02:31:15.289Z,4.78
2018-12-26T02:31:41.427Z,4.68
2018-12-26T02:32:07.538Z,4.73
2018-12-26T02:32:34.657Z,4.8
2018-12-26T02:33:00.794Z,4.75
2018-12-26T02:33:26.935Z,4.84
2018-12-26T02:33:53.034Z,4.73
2018-12-26T02:34:19.165Z,4.82
2018-12-26T02:34:45.296Z,4.74
2018-12-26T02:35:11.397Z,4.78
2018-12-26T02:35:37.505Z,4.8
2018-12-26T02:36:03.613Z,4.8
2018-12-26T02:36:29.714Z,4.75
2018-12-26T02:36:55.819Z,4.82
2018-12-26T02:37:21.920Z,4.84
2018-12-26T02:37:48.024Z,4.75
2018-12-26T02:38:14.133Z,4.82
2018-12-26T02:38:40.234Z,4.77
2018-12-26T02:39:06.364Z,4.74
2018-12-26T02:39:32.467Z,4.82
2018-12-26T02:39:58.572Z,4.78
2018-12-26T02:40:24.740Z,4.75
2018-12-26T02:40:50.876Z,4.82
2018-12-26T02:41:16.969Z,4.71
2018-12-26T02:41:43.107Z,4.74
2018-12-26T02:42:09.242Z,4.77
2018-12-26T02:42:35.340Z,4.73
2018-12-26T02:43:01.474Z,4.74
2018-12-26T02:43:27.578Z,4.74
2018-12-26T02:43:53.712Z,4.82
2018-12-26T02:44:19.820Z,4.77
2018-12-26T02:44:45.919Z,4.78
2018-12-26T02:45:12.051Z,4.75
2018-12-26T02:45:38.153Z,4.78
2018-12-26T02:46:04.284Z,4.74
2018-12-26T02:46:30.394Z,4.74
2018-12-26T02:46:56.516Z,4.74
2018-12-26T02:47:22.655Z,4.8
2018-12-26T02:47:48.758Z,4.77
2018-12-26T02:48:14.864Z,4.84
2018-12-26T02:48:40.971Z,4.84
2018-12-26T02:49:07.106Z,4.75
2018-12-26T02:49:33.231Z,4.82
2018-12-26T02:49:59.417Z,4.84
2018-12-26T02:50:25.527Z,4.82
2018-12-26T02:50:51.631Z,4.77
2018-12-26T02:51:17.758Z,4.78
2018-12-26T02:51:43.930Z,4.84
2018-12-26T02:52:10.053Z,4.8
2018-12-26T02:52:36.147Z,4.92
2018-12-26T02:53:02.304Z,4.75
2018-12-26T02:53:28.407Z,4.75
2018-12-26T02:53:54.507Z,4.82
2018-12-26T02:54:20.644Z,4.78
2018-12-26T02:54:46.805Z,4.82
2018-12-26T02:55:12.921Z,4.74
2018-12-26T02:55:39.056Z,4.8
2018-12-26T02:56:05.155Z,4.67
2018-12-26T02:56:31.263Z,4.75
2018-12-26T02:56:59.617Z,4.74
2018-12-26T02:57:25.794Z,4.7
2018-12-26T02:57:51.883Z,4.77
2018-12-26T02:58:17.986Z,4.74
2018-12-26T02:58:44.130Z,4.77
2018-12-26T02:59:10.221Z,4.78
2018-12-26T02:59:36.349Z,4.75
2018-12-26T03:00:02.455Z,4.73
2018-12-26T03:00:28.558Z,4.71
2018-12-26T03:00:54.682Z,4.62
2018-12-26T03:01:20.794Z,4.71
2018-12-26T03:01:46.897Z,4.67
2018-12-26T03:02:12.999Z,4.75
2018-12-26T03:02:39.100Z,4.7
2018-12-26T03:03:05.207Z,4.6
2018-12-26T03:03:31.338Z,4.68
2018-12-26T03:03:57.501Z,4.66
2018-12-26T03:04:23.653Z,4.56
2018-12-26T03:04:49.863Z,4.59
2018-12-26T03:05:16.019Z,4.66
2018-12-26T03:05:42.121Z,4.6
2018-12-26T03:06:08.285Z,4.55
2018-12-26T03:06:34.408Z,4.59
2018-12-26T03:07:00.510Z,4.6
2018-12-26T03:07:26.617Z,4.66
2018-12-26T03:07:52.716Z,4.6
2018-12-26T03:08:18.827Z,4.6
2018-12-26T03:08:44.924Z,4.53
2018-12-26T03:09:11.030Z,4.58
2018-12-26T03:09:37.166Z,4.6
2018-12-26T03:10:03.361Z,4.59
2018-12-26T03:10:29.489Z,4.53
2018-12-26T03:10:55.594Z,4.59
2018-12-26T03:11:21.699Z,4.59
2018-12-26T03:11:47.803Z,4.56
2018-12-26T03:12:13.906Z,4.66
2018-12-26T03:12:40.013Z,4.66
2018-12-26T03:13:06.113Z,4.6
2018-12-26T03:13:32.218Z,4.67
2018-12-26T03:13:58.511Z,4.71
2018-12-26T03:14:24.590Z,4.67
2018-12-26T03:14:50.707Z,4.62
2018-12-26T03:15:16.811Z,4.74
2018-12-26T03:15:42.910Z,4.73
2018-12-26T03:16:09.018Z,4.63
2018-12-26T03:16:35.143Z,4.66
2018-12-26T03:17:01.280Z,4.63
2018-12-26T03:17:27.425Z,4.68
2018-12-26T03:17:53.576Z,4.6
2018-12-26T03:18:19.711Z,4.6
2018-12-26T03:18:45.834Z,4.58
2018-12-26T03:19:11.938Z,4.53
2018-12-26T03:19:38.045Z,4.58
2018-12-26T03:20:04.153Z,4.6
2018-12-26T03:20:30.257Z,4.56
2018-12-26T03:20:56.388Z,4.56
2018-12-26T03:21:22.488Z,4.6
2018-12-26T03:21:48.589Z,4.53
2018-12-26T03:22:14.697Z,4.52
2018-12-26T03:22:40.833Z,4.56
2018-12-26T03:23:06.938Z,4.56
2018-12-26T03:23:33.064Z,4.55
2018-12-26T03:23:59.174Z,4.58
2018-12-26T03:24:25.375Z,4.58
2018-12-26T03:24:51.429Z,4.56
2018-12-26T03:25:17.534Z,4.62
2018-12-26T03:25:43.644Z,4.59
2018-12-26T03:26:09.749Z,4.6
2018-12-26T03:26:35.879Z,4.53
2018-12-26T03:27:03.006Z,4.5
2018-12-26T03:27:29.166Z,4.5
2018-12-26T03:27:55.262Z,4.45
2018-12-26T03:28:21.368Z,4.53
2018-12-26T03:28:47.509Z,4.52
2018-12-26T03:29:13.610Z,4.42
2018-12-26T03:29:39.707Z,4.45
2018-12-26T03:30:05.817Z,4.42
2018-12-26T03:30:32.003Z,4.49
2018-12-26T03:30:58.131Z,4.52
2018-12-26T03:31:24.292Z,4.49
2018-12-26T03:31:50.507Z,4.49
2018-12-26T03:32:16.695Z,4.44
2018-12-26T03:32:42.861Z,4.53
2018-12-26T03:33:09.017Z,4.53
2018-12-26T03:33:35.141Z,4.48
2018-12-26T03:34:01.242Z,4.52
2018-12-26T03:34:27.387Z,4.45
2018-12-26T03:34:53.492Z,4.42
2018-12-26T03:35:19.657Z,4.48
2018-12-26T03:35:45.798Z,4.52
2018-12-26T03:36:11.949Z,4.48
2018-12-26T03:36:38.050Z,4.34
2018-12-26T03:37:04.209Z,4.35
2018-12-26T03:37:30.314Z,4.37
2018-12-26T03:37:56.416Z,4.38
2018-12-26T03:38:22.524Z,4.48
2018-12-26T03:38:48.629Z,4.44
2018-12-26T03:39:14.728Z,4.41
2018-12-26T03:39:40.831Z,4.42
2018-12-26T03:40:07.049Z,4.37
2018-12-26T03:40:33.150Z,4.38
2018-12-26T03:40:59.293Z,4.42
2018-12-26T03:41:25.416Z,4.32
2018-12-26T03:41:51.521Z,4.32
2018-12-26T03:42:17.653Z,4.35
2018-12-26T03:42:43.761Z,4.38
2018-12-26T03:43:09.938Z,4.26
2018-12-26T03:43:36.037Z,4.23
2018-12-26T03:44:02.177Z,4.31
2018-12-26T03:44:28.280Z,4.3
2018-12-26T03:44:54.372Z,4.3
2018-12-26T03:45:20.501Z,4.22
2018-12-26T03:45:46.635Z,4.23
2018-12-26T03:46:12.765Z,4.22
2018-12-26T03:46:38.899Z,4.28
2018-12-26T03:47:05.017Z,4.19
2018-12-26T03:47:31.128Z,4.28
2018-12-26T03:47:57.231Z,4.26
2018-12-26T03:48:23.360Z,4.22
2018-12-26T03:48:49.462Z,4.31
2018-12-26T03:49:15.568Z,4.23
2018-12-26T03:49:41.695Z,4.26
2018-12-26T03:50:07.802Z,4.22
2018-12-26T03:50:33.957Z,4.37
2018-12-26T03:51:00.063Z,4.26
2018-12-26T03:51:26.192Z,4.28
2018-12-26T03:51:52.295Z,4.22
2018-12-26T03:52:18.407Z,4.28
2018-12-26T03:52:44.536Z,4.41
2018-12-26T03:53:10.674Z,4.38
2018-12-26T03:53:36.809Z,4.42
2018-12-26T03:54:02.914Z,4.4
2018-12-26T03:54:29.013Z,4.32
2018-12-26T03:54:55.172Z,4.4
2018-12-26T03:55:21.336Z,4.4
2018-12-26T03:55:47.444Z,4.34
2018-12-26T03:56:13.545Z,4.32
2018-12-26T03:56:39.644Z,4.35
2018-12-26T03:57:06.794Z,4.32
2018-12-26T03:57:32.885Z,4.32
2018-12-26T03:57:59.019Z,4.37
2018-12-26T03:58:25.124Z,4.32
2018-12-26T03:58:51.257Z,4.34
2018-12-26T03:59:17.358Z,4.38
2018-12-26T03:59:43.464Z,4.32
2018-12-26T04:00:09.593Z,4.32
2018-12-26T04:00:35.700Z,4.35
2018-12-26T04:01:01.799Z,4.34
2018-12-26T04:01:27.931Z,4.3
2018-12-26T04:01:54.086Z,4.37
2018-12-26T04:02:20.194Z,4.38
2018-12-26T04:02:46.301Z,4.35
2018-12-26T04:03:12.409Z,4.32
2018-12-26T04:03:38.538Z,4.32
2018-12-26T04:04:04.664Z,4.32
2018-12-26T04:04:30.789Z,4.4
2018-12-26T04:04:56.888Z,4.42
2018-12-26T04:05:23.023Z,4.35
2018-12-26T04:05:49.126Z,4.35
2018-12-26T04:06:15.256Z,4.32
2018-12-26T04:06:41.360Z,4.24
2018-12-26T04:07:07.467Z,4.26
2018-12-26T04:07:33.643Z,4.24
2018-12-26T04:07:59.784Z,4.23
2018-12-26T04:08:25.889Z,4.31
2018-12-26T04:08:52.020Z,4.3
2018-12-26T04:09:18.130Z,4.38
2018-12-26T04:09:44.232Z,4.34
2018-12-26T04:10:10.341Z,4.34
2018-12-26T04:10:36.463Z,4.31
2018-12-26T04:11:02.586Z,4.24
2018-12-26T04:11:28.690Z,4.2
2018-12-26T04:11:54.848Z,4.31
2018-12-26T04:12:20.991Z,4.24
2018-12-26T04:12:47.104Z,4.22
2018-12-26T04:13:13.240Z,4.34
2018-12-26T04:13:39.374Z,4.34
2018-12-26T04:14:05.481Z,4.22
2018-12-26T04:14:31.625Z,4.26
2018-12-26T04:14:57.729Z,4.37
2018-12-26T04:15:23.833Z,4.3
2018-12-26T04:15:49.938Z,4.31
2018-12-26T04:16:16.095Z,4.31
2018-12-26T04:16:42.205Z,4.34
2018-12-26T04:17:08.337Z,4.4
2018-12-26T04:17:34.441Z,4.32
2018-12-26T04:18:00.548Z,4.41
2018-12-26T04:18:26.661Z,4.37
2018-12-26T04:18:52.791Z,4.42
2018-12-26T04:19:18.885Z,4.35
2018-12-26T04:19:44.988Z,4.41
2018-12-26T04:20:11.128Z,4.5
2018-12-26T04:20:37.262Z,4.42
2018-12-26T04:21:03.367Z,4.41
2018-12-26T04:21:29.470Z,4.41
2018-12-26T04:21:55.570Z,4.45
2018-12-26T04:22:21.681Z,4.34
2018-12-26T04:22:47.830Z,4.34
2018-12-26T04:23:13.999Z,4.37
2018-12-26T04:23:40.105Z,4.34
2018-12-26T04:24:06.211Z,4.4
2018-12-26T04:24:32.379Z,4.42
2018-12-26T04:24:58.481Z,4.48
2018-12-26T04:25:24.604Z,4.35
2018-12-26T04:25:50.714Z,4.34
2018-12-26T04:26:16.847Z,4.34
2018-12-26T04:26:42.968Z,4.24
2018-12-26T04:27:15.398Z,4.22
2018-12-26T04:27:36.749Z,4.24
2018-12-26T04:28:02.848Z,4.24
2018-12-26T04:28:28.952Z,4.31
2018-12-26T04:28:55.063Z,4.34
2018-12-26T04:29:21.152Z,4.32
2018-12-26T04:29:47.318Z,4.28
2018-12-26T04:30:13.425Z,4.34
2018-12-26T04:30:39.527Z,4.42
2018-12-26T04:31:05.647Z,4.32
2018-12-26T04:31:31.766Z,4.31
2018-12-26T04:31:57.870Z,4.45
2018-12-26T04:32:23.976Z,4.4
2018-12-26T04:32:50.078Z,4.34
2018-12-26T04:33:16.207Z,4.37
2018-12-26T04:33:42.353Z,4.44
2018-12-26T04:34:08.455Z,4.35
2018-12-26T04:34:34.564Z,4.32
2018-12-26T04:35:00.734Z,4.48
2018-12-26T04:35:26.784Z,4.4
2018-12-26T04:35:52.890Z,4.4
2018-12-26T04:36:19.055Z,4.38
2018-12-26T04:36:45.185Z,4.4
2018-12-26T04:37:11.290Z,4.45
2018-12-26T04:37:37.400Z,4.48
2018-12-26T04:38:03.529Z,4.52
2018-12-26T04:38:29.664Z,4.52
2018-12-26T04:38:55.770Z,4.42
2018-12-26T04:39:21.878Z,4.45
2018-12-26T04:39:47.978Z,4.42
2018-12-26T04:40:14.112Z,4.44
2018-12-26T04:40:40.249Z,4.49
2018-12-26T04:41:06.346Z,4.4
2018-12-26T04:41:32.455Z,4.4
2018-12-26T04:41:58.553Z,4.42
2018-12-26T04:42:24.660Z,4.49
2018-12-26T04:42:50.786Z,4.42
2018-12-26T04:43:16.896Z,4.32
2018-12-26T04:43:43.022Z,4.35
2018-12-26T04:44:09.131Z,4.34
2018-12-26T04:44:35.267Z,4.38
2018-12-26T04:45:01.371Z,4.5
2018-12-26T04:45:27.470Z,4.45
2018-12-26T04:45:53.575Z,4.48
2018-12-26T04:46:19.678Z,4.5
2018-12-26T04:46:45.784Z,4.52
2018-12-26T04:47:11.914Z,4.5
2018-12-26T04:47:38.018Z,4.5
2018-12-26T04:48:04.127Z,4.55
2018-12-26T04:48:30.253Z,4.58
2018-12-26T04:48:56.367Z,4.56
2018-12-26T04:49:23.791Z,4.58
2018-12-26T04:49:49.781Z,4.58
2018-12-26T04:50:15.833Z,4.58
2018-12-26T04:50:41.936Z,4.6
2018-12-26T04:51:08.073Z,4.55
2018-12-26T04:51:34.172Z,4.63
2018-12-26T04:52:00.313Z,4.5
2018-12-26T04:52:26.409Z,4.56
2018-12-26T04:52:52.514Z,4.56
2018-12-26T04:53:18.621Z,4.53
2018-12-26T04:53:44.722Z,4.58
2018-12-26T04:54:10.821Z,4.59
2018-12-26T04:54:36.985Z,4.5
2018-12-26T04:55:03.082Z,4.55
2018-12-26T04:55:29.197Z,4.49
2018-12-26T04:55:55.304Z,4.55
2018-12-26T04:56:21.442Z,4.53
2018-12-26T04:56:47.578Z,4.48
2018-12-26T04:57:13.682Z,4.52
2018-12-26T04:57:40.868Z,4.53
2018-12-26T04:58:06.975Z,4.5
2018-12-26T04:58:33.192Z,4.44
2018-12-26T04:58:59.298Z,4.45
2018-12-26T04:59:25.407Z,4.45
2018-12-26T04:59:51.549Z,4.49
2018-12-26T05:00:17.677Z,4.49
2018-12-26T05:00:43.782Z,4.49
2018-12-26T05:01:09.961Z,4.5
2018-12-26T05:01:36.065Z,4.49
2018-12-26T05:02:02.195Z,4.49
2018-12-26T05:02:28.397Z,4.5
2018-12-26T05:02:54.500Z,4.49
2018-12-26T05:03:20.605Z,4.49
2018-12-26T05:03:46.762Z,4.55
2018-12-26T05:04:12.902Z,4.45
2018-12-26T05:04:39.019Z,4.53
2018-12-26T05:05:05.130Z,4.49
2018-12-26T05:05:31.234Z,4.55
2018-12-26T05:05:57.342Z,4.53
2018-12-26T05:06:23.445Z,4.56
2018-12-26T05:06:49.548Z,4.6
2018-12-26T05:07:15.682Z,4.49
2018-12-26T05:07:41.812Z,4.48
2018-12-26T05:08:07.918Z,4.49
2018-12-26T05:08:34.019Z,4.55
2018-12-26T05:09:00.217Z,4.49
2018-12-26T05:09:26.256Z,4.48
2018-12-26T05:09:52.413Z,4.52
2018-12-26T05:10:18.518Z,4.48
2018-12-26T05:10:44.661Z,4.42
2018-12-26T05:11:10.789Z,4.42
2018-12-26T05:11:36.921Z,4.48
2018-12-26T05:12:03.055Z,4.48
2018-12-26T05:12:29.166Z,4.38
2018-12-26T05:12:55.269Z,4.41
2018-12-26T05:13:21.369Z,4.42
2018-12-26T05:13:47.500Z,4.48
2018-12-26T05:14:13.674Z,4.45
2018-12-26T05:14:39.725Z,4.5
2018-12-26T05:15:05.835Z,4.52
2018-12-26T05:15:31.968Z,4.5
2018-12-26T05:15:58.066Z,4.56
2018-12-26T05:16:24.210Z,4.52
2018-12-26T05:16:50.314Z,4.53
2018-12-26T05:17:16.421Z,4.56
2018-12-26T05:17:42.512Z,4.58
2018-12-26T05:18:08.653Z,4.53
2018-12-26T05:18:34.754Z,4.48
2018-12-26T05:19:00.862Z,4.58
2018-12-26T05:19:26.958Z,4.5
2018-12-26T05:19:53.059Z,4.59
2018-12-26T05:20:19.170Z,4.52
2018-12-26T05:20:45.277Z,4.55
2018-12-26T05:21:11.374Z,4.55
2018-12-26T05:21:37.486Z,4.45
2018-12-26T05:22:03.594Z,4.53
2018-12-26T05:22:29.686Z,4.49
2018-12-26T05:22:55.787Z,4.52
2018-12-26T05:23:21.921Z,4.5
2018-12-26T05:23:48.041Z,4.42
2018-12-26T05:24:14.196Z,4.42
2018-12-26T05:24:40.297Z,4.44
2018-12-26T05:25:06.433Z,4.42
2018-12-26T05:25:32.527Z,4.48
2018-12-26T05:25:58.669Z,4.45
2018-12-26T05:26:24.806Z,4.5
2018-12-26T05:26:50.957Z,4.49
2018-12-26T05:27:17.064Z,4.53
2018-12-26T05:27:44.213Z,4.58
2018-12-26T05:28:10.368Z,4.59
2018-12-26T05:28:36.498Z,4.59
2018-12-26T05:29:02.600Z,4.6
2018-12-26T05:29:28.700Z,4.53
2018-12-26T05:29:54.802Z,4.59
2018-12-26T05:30:20.946Z,4.58
2018-12-26T05:30:47.054Z,4.6
2018-12-26T05:31:13.160Z,4.58
2018-12-26T05:31:39.296Z,4.56
2018-12-26T05:32:05.392Z,4.56
2018-12-26T05:32:31.501Z,4.56
2018-12-26T05:32:57.601Z,4.55
2018-12-26T05:33:23.736Z,4.58
2018-12-26T05:33:49.833Z,4.58
2018-12-26T05:34:15.936Z,4.55
2018-12-26T05:34:42.044Z,4.52
2018-12-26T05:35:08.150Z,4.5
2018-12-26T05:35:34.297Z,4.49
2018-12-26T05:36:00.423Z,4.58
2018-12-26T05:36:26.585Z,4.62
2018-12-26T05:36:52.690Z,4.58
2018-12-26T05:37:18.815Z,4.58
2018-12-26T05:37:44.925Z,4.58
2018-12-26T05:38:11.056Z,4.6
2018-12-26T05:38:37.759Z,4.53
2018-12-26T05:39:03.893Z,4.48
2018-12-26T05:39:29.996Z,4.5
2018-12-26T05:39:56.109Z,4.49
2018-12-26T05:40:22.207Z,4.49
2018-12-26T05:40:48.311Z,4.55
2018-12-26T05:41:14.412Z,4.5
2018-12-26T05:41:40.513Z,4.53
2018-12-26T05:42:06.614Z,4.53
2018-12-26T05:42:32.719Z,4.52
2018-12-26T05:42:58.826Z,4.45
2018-12-26T05:43:24.960Z,4.4
2018-12-26T05:43:51.070Z,4.48
2018-12-26T05:44:17.170Z,4.5
2018-12-26T05:44:43.279Z,4.49
2018-12-26T05:45:09.384Z,4.56
2018-12-26T05:45:36.508Z,4.56
2018-12-26T05:46:02.612Z,4.58
2018-12-26T05:46:28.745Z,4.45
2018-12-26T05:46:54.881Z,4.49
2018-12-26T05:47:21.009Z,4.49
2018-12-26T05:47:47.112Z,4.48
2018-12-26T05:48:13.218Z,4.53
2018-12-26T05:48:39.319Z,4.44
2018-12-26T05:49:05.461Z,4.42
2018-12-26T05:49:31.555Z,4.5